createdAt,value
2022-09-28T00:01:19.058Z,99034.03
2022-09-28T00:03:48.772Z,99023.94
2022-09-28T00:06:18.836Z,99006.41
2022-09-28T00:08:45.744Z,99003.50
2022-09-28T00:11:15.619Z,98997.28
2022-09-28T00:13:44.005Z,98997.63
2022-09-28T00:16:14.312Z,99000.56
2022-09-28T00:18:42.027Z,99001.72
2022-09-28T00:21:14.855Z,98999.75
2022-09-28T00:24:01.600Z,98989.88
2022-09-28T00:26:30.476Z,98995.00
2022-09-28T00:28:59.775Z,98992.78
2022-09-28T00:31:30.322Z,98991.69
2022-09-28T00:33:57.646Z,98995.97
2022-09-28T00:36:27.187Z,98994.38
2022-09-28T00:38:58.538Z,98991.19
2022-09-28T00:41:27.684Z,98991.97
2022-09-28T00:44:26.700Z,98987.16
2022-09-28T00:47:17.950Z,98983.09
2022-09-28T00:49:54.131Z,98990.88
2022-09-28T00:52:31.895Z,98983.03
2022-09-28T00:55:02.280Z,98983.09
2022-09-28T00:57:30.925Z,98988.25
2022-09-28T01:00:01.071Z,98985.47
2022-09-28T01:02:28.274Z,98988.41
2022-09-28T01:04:57.420Z,98994.03
2022-09-28T01:07:24.768Z,98992.41
2022-09-28T01:09:54.130Z,98979.53
2022-09-28T01:12:21.229Z,98986.28
2022-09-28T01:14:49.550Z,98986.22
2022-09-28T01:17:22.129Z,98980.56
2022-09-28T01:20:28.356Z,98980.34
2022-09-28T01:23:01.397Z,98972.50
2022-09-28T01:25:41.213Z,98973.50
2022-09-28T01:28:14.018Z,98964.03
2022-09-28T01:30:56.009Z,98962.16
2022-09-28T01:33:29.338Z,98957.34
2022-09-28T01:36:28.426Z,98965.09
2022-09-28T01:39:00.262Z,98971.38
2022-09-28T01:41:30.498Z,98970.81
2022-09-28T01:44:03.100Z,98974.53
2022-09-28T01:46:50.338Z,98973.72
2022-09-28T01:49:23.146Z,98974.81
2022-09-28T01:51:52.891Z,98984.19
2022-09-28T01:54:38.461Z,98988.94
2022-09-28T01:57:17.653Z,98987.13
2022-09-28T01:59:54.960Z,98981.56
2022-09-28T02:02:32.636Z,98983.25
2022-09-28T02:05:42.588Z,98978.06
2022-09-28T02:08:33.800Z,98976.75
2022-09-28T02:11:15.518Z,98977.72
2022-09-28T02:13:56.115Z,98976.94
2022-09-28T02:16:33.653Z,98969.72
2022-09-28T02:19:01.454Z,98967.75
2022-09-28T02:21:43.968Z,98965.22
2022-09-28T02:24:21.539Z,98955.09
2022-09-28T02:26:52.061Z,98944.13
2022-09-28T02:29:19.266Z,98939.47
2022-09-28T02:31:46.345Z,98938.84
2022-09-28T02:34:13.376Z,98943.91
2022-09-28T02:36:40.715Z,98949.63
2022-09-28T02:39:18.158Z,98958.13
2022-09-28T02:41:55.684Z,98960.25
2022-09-28T02:44:49.656Z,98968.53
2022-09-28T02:47:35.106Z,98968.84
2022-09-28T02:50:04.515Z,98975.97
2022-09-28T02:52:50.552Z,98975.00
2022-09-28T02:55:17.633Z,98981.69
2022-09-28T02:57:54.635Z,98991.78
2022-09-28T03:00:23.671Z,98988.81
2022-09-28T03:03:30.106Z,98993.09
2022-09-28T03:06:07.903Z,98998.28
2022-09-28T03:08:53.074Z,98999.50
2022-09-28T03:11:25.112Z,98996.09
2022-09-28T03:13:53.513Z,99002.13
2022-09-28T03:16:24.854Z,99001.41
2022-09-28T03:18:52.018Z,99001.72
2022-09-28T03:21:19.368Z,99006.88
2022-09-28T03:23:47.498Z,99001.00
2022-09-28T03:26:20.030Z,99000.56
2022-09-28T03:28:47.408Z,98999.63
2022-09-28T03:31:20.965Z,98997.72
2022-09-28T03:33:48.011Z,98992.19
2022-09-28T03:36:15.379Z,98993.81
2022-09-28T03:38:42.421Z,98987.03
2022-09-28T03:41:10.496Z,98978.72
2022-09-28T03:43:40.812Z,98989.81
2022-09-28T03:46:07.874Z,98995.78
2022-09-28T03:48:40.797Z,98982.63
2022-09-28T03:51:11.136Z,98986.69
2022-09-28T03:53:39.757Z,98991.34
2022-09-28T03:56:12.423Z,98987.53
2022-09-28T03:58:40.167Z,98989.16
2022-09-28T04:01:16.406Z,98991.91
2022-09-28T04:03:46.489Z,98979.16
2022-09-28T04:06:14.152Z,98979.75
2022-09-28T04:08:41.287Z,98975.44
2022-09-28T04:11:09.216Z,98977.13
2022-09-28T04:13:37.764Z,98977.63
2022-09-28T04:16:07.392Z,98980.09
2022-09-28T04:18:36.971Z,98973.28
2022-09-28T04:21:22.659Z,98970.72
2022-09-28T04:23:55.172Z,98969.81
2022-09-28T04:26:24.559Z,98971.44
2022-09-28T04:29:10.348Z,98962.53
2022-09-28T04:31:42.243Z,98957.72
2022-09-28T04:34:09.724Z,98951.47
2022-09-28T04:36:37.939Z,98958.09
2022-09-28T04:39:05.585Z,98968.69
2022-09-28T04:41:33.497Z,98974.53
2022-09-28T04:44:01.366Z,98975.13
2022-09-28T04:46:28.506Z,98972.69
2022-09-28T04:49:14.342Z,98958.16
2022-09-28T04:51:53.400Z,98953.84
2022-09-28T04:54:20.406Z,98949.34
2022-09-28T04:56:47.562Z,98949.06
2022-09-28T04:59:14.713Z,98950.47
2022-09-28T05:01:42.719Z,98941.19
2022-09-28T05:04:35.906Z,98941.56
2022-09-28T05:07:27.139Z,98927.00
2022-09-28T05:09:56.588Z,98937.97
2022-09-28T05:12:25.488Z,98938.53
2022-09-28T05:14:52.492Z,98934.69
2022-09-28T05:17:19.554Z,98934.09
2022-09-28T05:19:59.431Z,98933.50
2022-09-28T05:22:26.565Z,98934.72
2022-09-28T05:24:55.175Z,98937.19
2022-09-28T05:27:24.109Z,98927.72
2022-09-28T05:30:00.004Z,98923.28
2022-09-28T05:32:45.588Z,98933.28
2022-09-28T05:35:23.564Z,98930.84
2022-09-28T05:37:55.188Z,98934.28
2022-09-28T05:40:23.302Z,98917.53
2022-09-28T05:42:53.594Z,98910.66
2022-09-28T05:45:21.084Z,98907.44
2022-09-28T05:47:50.515Z,98909.63
2022-09-28T05:50:20.924Z,98918.22
2022-09-28T05:52:50.314Z,98920.63
2022-09-28T05:55:17.373Z,98925.03
2022-09-28T05:57:44.296Z,98923.19
2022-09-28T06:00:11.934Z,98934.00
2022-09-28T06:02:56.262Z,98931.19
2022-09-28T06:05:23.995Z,98931.75
2022-09-28T06:07:50.978Z,98932.66
2022-09-28T06:10:18.148Z,98915.19
2022-09-28T06:12:47.183Z,98921.66
2022-09-28T06:15:17.517Z,98906.34
2022-09-28T06:17:46.124Z,98915.28
2022-09-28T06:20:35.702Z,98915.66
2022-09-28T06:23:16.560Z,98921.91
2022-09-28T06:25:43.997Z,98927.06
2022-09-28T06:28:13.710Z,98924.47
2022-09-28T06:30:42.098Z,98921.34
2022-09-28T06:33:13.506Z,98925.75
2022-09-28T06:35:41.281Z,98911.00
2022-09-28T06:38:08.888Z,98908.56
2022-09-28T06:40:36.641Z,98911.84
2022-09-28T06:43:11.379Z,98916.03
2022-09-28T06:45:57.218Z,98917.50
2022-09-28T06:48:59.679Z,98915.97
2022-09-28T06:51:46.633Z,98910.19
2022-09-28T06:54:25.895Z,98902.03
2022-09-28T06:57:28.255Z,98900.94
2022-09-28T06:59:58.250Z,98903.72
2022-09-28T07:02:26.313Z,98906.69
2022-09-28T07:05:13.985Z,98906.34
2022-09-28T07:07:59.395Z,98910.84
2022-09-28T07:11:07.220Z,98895.69
2022-09-28T07:14:03.384Z,98889.47
2022-09-28T07:16:51.929Z,98891.41
2022-09-28T07:19:19.009Z,98892.50
2022-09-28T07:21:51.528Z,98887.34
2022-09-28T07:24:23.807Z,98894.88
2022-09-28T07:27:09.740Z,98884.06
2022-09-28T07:29:53.118Z,98894.28
2022-09-28T07:32:37.547Z,98889.22
2022-09-28T07:36:00.874Z,98891.09
2022-09-28T07:38:29.613Z,98884.63
2022-09-28T07:41:12.963Z,98888.63
2022-09-28T07:43:46.494Z,98898.59
2022-09-28T07:46:13.634Z,98883.28
2022-09-28T07:49:00.718Z,98881.69
2022-09-28T07:51:34.309Z,98870.84
2022-09-28T07:54:39.584Z,98881.41
2022-09-28T07:57:41.956Z,98878.72
2022-09-28T08:00:25.354Z,98879.78
2022-09-28T08:02:52.425Z,98888.44
2022-09-28T08:05:23.925Z,98880.38
2022-09-28T08:07:50.966Z,98877.34
2022-09-28T08:10:18.210Z,98863.97
2022-09-28T08:13:23.481Z,98863.50
2022-09-28T08:16:12.786Z,98870.53
2022-09-28T08:19:09.775Z,98862.41
2022-09-28T08:21:45.791Z,98864.38
2022-09-28T08:24:15.702Z,98854.63
2022-09-28T08:26:43.886Z,98855.72
2022-09-28T08:29:12.588Z,98854.03
2022-09-28T08:31:51.996Z,98849.19
2022-09-28T08:34:48.687Z,98843.44
2022-09-28T08:37:34.891Z,98841.97
2022-09-28T08:40:25.850Z,98820.38
2022-09-28T08:43:15.564Z,98821.88
2022-09-28T08:46:25.010Z,98823.16
2022-09-28T08:49:25.788Z,98818.34
2022-09-28T08:52:24.944Z,98822.81
2022-09-28T08:55:35.063Z,98817.72
2022-09-28T08:58:12.478Z,98827.28
2022-09-28T09:00:59.389Z,98818.78
2022-09-28T09:03:34.733Z,98827.63
2022-09-28T09:06:40.715Z,98818.81
2022-09-28T09:09:38.382Z,98828.88
2022-09-28T09:12:36.965Z,98830.81
2022-09-28T09:15:28.600Z,98822.94
2022-09-28T09:18:23.104Z,98830.91
2022-09-28T09:21:28.753Z,98848.38
2022-09-28T09:24:02.243Z,98851.91
2022-09-28T09:26:40.682Z,98854.84
2022-09-28T09:29:29.224Z,98847.16
2022-09-28T09:32:18.644Z,98852.28
2022-09-28T09:34:52.136Z,98856.16
2022-09-28T09:38:02.273Z,98851.78
2022-09-28T09:41:16.828Z,98848.84
2022-09-28T09:44:28.139Z,98847.00
2022-09-28T09:47:30.948Z,98841.50
2022-09-28T09:50:17.092Z,98839.09
2022-09-28T09:52:57.563Z,98838.09
2022-09-28T09:55:45.267Z,98839.75
2022-09-28T09:58:48.054Z,98844.31
2022-09-28T10:01:41.237Z,98833.25
2022-09-28T10:04:30.063Z,98837.03
2022-09-28T10:07:04.671Z,98828.91
2022-09-28T10:09:42.615Z,98827.50
2022-09-28T10:12:29.310Z,98830.75
2022-09-28T10:14:56.822Z,98821.75
2022-09-28T10:17:27.928Z,98816.53
2022-09-28T10:20:23.388Z,98828.63
2022-09-28T10:23:14.562Z,98828.38
2022-09-28T10:25:46.263Z,98833.38
2022-09-28T10:28:22.778Z,98830.25
2022-09-28T10:30:51.008Z,98829.84
2022-09-28T10:33:33.227Z,98834.63
2022-09-28T10:36:02.242Z,98828.63
2022-09-28T10:38:31.101Z,98820.38
2022-09-28T10:41:11.845Z,98819.69
2022-09-28T10:44:06.359Z,98803.69
2022-09-28T10:46:43.091Z,98796.31
2022-09-28T10:49:18.883Z,98801.38
2022-09-28T10:51:56.815Z,98801.81
2022-09-28T10:54:29.860Z,98798.03
2022-09-28T10:56:59.461Z,98784.06
2022-09-28T10:59:41.686Z,98778.91
2022-09-28T11:02:40.232Z,98774.59
2022-09-28T11:05:22.918Z,98765.03
2022-09-28T11:07:54.090Z,98764.44
2022-09-28T11:10:29.038Z,98762.19
2022-09-28T11:13:01.803Z,98768.31
2022-09-28T11:15:33.588Z,98755.81
2022-09-28T11:18:28.396Z,98740.63
2022-09-28T11:21:12.629Z,98742.41
2022-09-28T11:24:02.494Z,98749.84
2022-09-28T11:26:44.542Z,98747.38
2022-09-28T11:29:42.114Z,98752.00
2022-09-28T11:32:18.776Z,98745.66
2022-09-28T11:35:04.769Z,98741.00
2022-09-28T11:37:43.390Z,98737.81
2022-09-28T11:40:19.593Z,98735.59
2022-09-28T11:42:59.404Z,98731.38
2022-09-28T11:45:54.555Z,98739.22
2022-09-28T11:48:31.024Z,98727.38
2022-09-28T11:51:04.242Z,98741.56
2022-09-28T11:53:47.874Z,98742.53
2022-09-28T11:56:32.236Z,98731.13
2022-09-28T11:59:07.594Z,98737.56
2022-09-28T12:01:56.776Z,98741.50
2022-09-28T12:04:45.596Z,98740.03
2022-09-28T12:07:23.913Z,98728.47
2022-09-28T12:10:08.672Z,98733.78
2022-09-28T12:12:42.256Z,98742.09
2022-09-28T12:15:20.232Z,98730.72
2022-09-28T12:17:54.458Z,98724.00
2022-09-28T12:20:32.616Z,98731.56
2022-09-28T12:22:59.506Z,98718.28
2022-09-28T12:25:31.632Z,98710.69
2022-09-28T12:28:03.667Z,98707.50
2022-09-28T12:30:37.501Z,98706.09
2022-09-28T12:33:15.592Z,98696.31
2022-09-28T12:36:09.834Z,98689.97
2022-09-28T12:39:27.490Z,98686.38
2022-09-28T12:42:01.039Z,98688.75
2022-09-28T12:44:59.424Z,98688.25
2022-09-28T12:48:04.157Z,98672.84
2022-09-28T12:50:57.748Z,98670.16
2022-09-28T12:53:54.196Z,98665.63
2022-09-28T12:56:30.041Z,98668.31
2022-09-28T12:59:29.273Z,98667.41
2022-09-28T13:01:59.390Z,98664.06
2022-09-28T13:04:53.853Z,98674.16
2022-09-28T13:07:38.070Z,98659.25
2022-09-28T13:10:23.855Z,98671.19
2022-09-28T13:13:22.240Z,98664.63
2022-09-28T13:16:10.692Z,98657.94
2022-09-28T13:18:49.084Z,98656.09
2022-09-28T13:21:23.607Z,98660.19
2022-09-28T13:24:04.301Z,98662.25
2022-09-28T13:26:45.022Z,98662.47
2022-09-28T13:29:16.579Z,98663.53
2022-09-28T13:31:57.373Z,98651.78
2022-09-28T13:34:32.761Z,98652.59
2022-09-28T13:37:16.988Z,98656.19
2022-09-28T13:39:52.555Z,98659.00
2022-09-28T13:42:26.466Z,98649.63
2022-09-28T13:44:59.688Z,98643.63
2022-09-28T13:47:50.566Z,98649.56
2022-09-28T13:50:29.433Z,98651.88
2022-09-28T13:53:20.748Z,98658.91
2022-09-28T13:56:00.792Z,98652.81
2022-09-28T13:58:44.352Z,98656.75
2022-09-28T14:01:29.346Z,98649.63
2022-09-28T14:03:57.366Z,98652.25
2022-09-28T14:06:32.805Z,98641.44
2022-09-28T14:09:27.039Z,98645.88
2022-09-28T14:12:03.048Z,98647.09
2022-09-28T14:14:50.334Z,98646.59
2022-09-28T14:17:23.998Z,98639.84
2022-09-28T14:20:13.519Z,98645.34
2022-09-28T14:23:25.444Z,98641.59
2022-09-28T14:26:17.124Z,98634.13
2022-09-28T14:28:58.126Z,98640.56
2022-09-28T14:31:27.908Z,98633.53
2022-09-28T14:33:59.430Z,98637.94
2022-09-28T14:36:53.171Z,98637.13
2022-09-28T14:39:49.225Z,98630.44
2022-09-28T14:42:22.008Z,98627.09
2022-09-28T14:45:06.611Z,98628.53
2022-09-28T14:48:02.958Z,98627.38
2022-09-28T14:50:30.261Z,98628.41
2022-09-28T14:53:13.604Z,98629.47
2022-09-28T14:55:55.559Z,98635.78
2022-09-28T14:58:26.887Z,98635.31
2022-09-28T15:01:14.624Z,98637.56
2022-09-28T15:03:43.899Z,98642.81
2022-09-28T15:06:19.868Z,98640.69
2022-09-28T15:08:47.231Z,98635.19
2022-09-28T15:11:18.525Z,98625.59
2022-09-28T15:13:46.190Z,98630.94
2022-09-28T15:16:15.629Z,98631.34
2022-09-28T15:18:54.862Z,98624.28
2022-09-28T15:21:22.413Z,98634.47
2022-09-28T15:23:50.570Z,98635.47
2022-09-28T15:26:27.502Z,98632.41
2022-09-28T15:28:55.556Z,98629.63
2022-09-28T15:31:25.701Z,98637.28
2022-09-28T15:34:11.870Z,98631.53
2022-09-28T15:36:46.504Z,98622.56
2022-09-28T15:39:41.175Z,98628.63
2022-09-28T15:42:08.468Z,98630.59
2022-09-28T15:44:37.619Z,98613.72
2022-09-28T15:47:25.105Z,98621.34
2022-09-28T15:50:05.037Z,98635.38
2022-09-28T15:52:41.410Z,98623.72
2022-09-28T15:55:42.649Z,98631.41
2022-09-28T15:58:12.689Z,98628.97
2022-09-28T16:00:40.387Z,98629.22
2022-09-28T16:03:07.321Z,98630.72
2022-09-28T16:05:39.942Z,98634.50
2022-09-28T16:08:21.434Z,98635.63
2022-09-28T16:11:38.137Z,98638.28
2022-09-28T16:14:07.453Z,98633.88
2022-09-28T16:16:42.201Z,98635.97
2022-09-28T16:19:36.296Z,98635.63
2022-09-28T16:22:16.487Z,98631.41
2022-09-28T16:24:54.768Z,98627.19
2022-09-28T16:27:40.267Z,98623.53
2022-09-28T16:30:10.229Z,98627.75
2022-09-28T16:32:41.950Z,98628.91
2022-09-28T16:35:11.598Z,98631.78
2022-09-28T16:37:43.099Z,98629.16
2022-09-28T16:40:11.434Z,98621.66
2022-09-28T16:42:44.395Z,98621.47
2022-09-28T16:45:20.053Z,98630.72
2022-09-28T16:47:47.791Z,98628.81
2022-09-28T16:50:15.441Z,98635.88
2022-09-28T16:53:01.492Z,98641.63
2022-09-28T16:55:39.988Z,98638.91
2022-09-28T16:58:08.669Z,98631.06
2022-09-28T17:00:36.364Z,98636.97
2022-09-28T17:03:13.031Z,98635.66
2022-09-28T17:05:40.313Z,98640.25
2022-09-28T17:08:10.843Z,98644.09
2022-09-28T17:11:02.599Z,98642.75
2022-09-28T17:13:36.148Z,98644.88
2022-09-28T17:16:49.423Z,98646.53
2022-09-28T17:19:23.474Z,98641.66
2022-09-28T17:21:52.016Z,98643.81
2022-09-28T17:24:20.007Z,98636.50
2022-09-28T17:26:49.232Z,98640.28
2022-09-28T17:29:16.656Z,98641.13
2022-09-28T17:31:45.221Z,98641.66
2022-09-28T17:34:15.312Z,98641.38
2022-09-28T17:36:43.435Z,98640.50
2022-09-28T17:39:15.396Z,98637.88
2022-09-28T17:41:42.550Z,98636.53
2022-09-28T17:44:10.169Z,98649.25
2022-09-28T17:46:40.848Z,98635.97
2022-09-28T17:49:11.773Z,98642.41
2022-09-28T17:51:38.805Z,98639.13
2022-09-28T17:54:08.241Z,98628.72
2022-09-28T17:56:38.213Z,98634.81
2022-09-28T17:59:07.985Z,98629.63
2022-09-28T18:01:38.907Z,98628.56
2022-09-28T18:04:08.254Z,98627.66
2022-09-28T18:06:37.363Z,98625.78
2022-09-28T18:09:05.335Z,98623.41
2022-09-28T18:11:33.733Z,98617.25
2022-09-28T18:14:01.212Z,98634.31
2022-09-28T18:16:29.113Z,98624.88
2022-09-28T18:18:56.685Z,98622.41
2022-09-28T18:21:23.763Z,98620.47
2022-09-28T18:23:51.055Z,98619.88
2022-09-28T18:26:19.794Z,98635.81
2022-09-28T18:28:47.280Z,98629.03
2022-09-28T18:31:16.112Z,98624.09
2022-09-28T18:33:44.193Z,98620.06
2022-09-28T18:36:11.137Z,98621.44
2022-09-28T18:38:38.745Z,98618.72
2022-09-28T18:41:10.572Z,98618.72
2022-09-28T18:43:37.775Z,98627.91
2022-09-28T18:46:10.046Z,98619.88
2022-09-28T18:48:38.181Z,98626.38
2022-09-28T18:51:09.652Z,98625.84
2022-09-28T18:53:37.313Z,98619.09
2022-09-28T18:56:12.046Z,98623.47
2022-09-28T18:58:40.801Z,98621.03
2022-09-28T19:04:01.086Z,98620.81
2022-09-28T19:06:28.887Z,98607.84
2022-09-28T19:08:56.566Z,98609.44
2022-09-28T19:11:24.390Z,98606.75
2022-09-28T19:13:54.447Z,98616.53
2022-09-28T19:16:30.164Z,98610.84
2022-09-28T19:19:01.497Z,98622.22
2022-09-28T19:21:28.944Z,98617.25
2022-09-28T19:23:56.187Z,98616.53
2022-09-28T19:26:27.724Z,98616.53
2022-09-28T19:28:58.180Z,98611.50
2022-09-28T19:31:26.506Z,98609.72
2022-09-28T19:33:53.563Z,98622.00
2022-09-28T19:36:23.766Z,98626.94
2022-09-28T19:38:52.311Z,98625.59
2022-09-28T19:41:43.055Z,98629.88
2022-09-28T19:44:13.630Z,98622.00
2022-09-28T19:46:40.742Z,98614.41
2022-09-28T19:49:14.091Z,98617.09
2022-09-28T19:52:01.652Z,98618.50
2022-09-28T19:54:35.505Z,98623.16
2022-09-28T19:57:07.949Z,98625.09
2022-09-28T19:59:36.938Z,98624.28
2022-09-28T20:02:06.796Z,98622.06
2022-09-28T20:04:36.981Z,98621.81
2022-09-28T20:07:05.428Z,98605.59
2022-09-28T20:09:33.147Z,98611.28
2022-09-28T20:12:00.223Z,98616.13
2022-09-28T20:14:32.016Z,98614.72
2022-09-28T20:17:01.371Z,98616.63
2022-09-28T20:19:28.342Z,98617.13
2022-09-28T20:21:59.634Z,98622.25
2022-09-28T20:24:28.877Z,98614.56
2022-09-28T20:26:56.013Z,98613.97
2022-09-28T20:29:24.397Z,98616.22
2022-09-28T20:31:52.078Z,98606.78
2022-09-28T20:34:19.188Z,98614.38
2022-09-28T20:36:46.367Z,98621.44
2022-09-28T20:39:13.537Z,98623.34
2022-09-28T20:41:41.290Z,98629.59
2022-09-28T20:44:08.459Z,98640.72
2022-09-28T20:46:36.674Z,98646.69
2022-09-28T20:49:05.279Z,98649.66
2022-09-28T20:51:32.482Z,98644.50
2022-09-28T20:54:00.253Z,98650.47
2022-09-28T20:56:38.303Z,98654.81
2022-09-28T20:59:13.431Z,98654.28
2022-09-28T21:01:41.104Z,98651.81
2022-09-28T21:04:09.671Z,98652.63
2022-09-28T21:06:39.698Z,98657.25
2022-09-28T21:09:08.395Z,98650.25
2022-09-28T21:11:36.000Z,98635.88
2022-09-28T21:14:06.461Z,98647.75
2022-09-28T21:16:34.750Z,98643.38
2022-09-28T21:19:02.183Z,98650.69
2022-09-28T21:21:29.364Z,98649.88
2022-09-28T21:23:57.662Z,98645.03
2022-09-28T21:26:28.083Z,98631.50
2022-09-28T21:28:58.043Z,98622.56
2022-09-28T21:31:28.803Z,98618.50
2022-09-28T21:33:58.425Z,98623.94
2022-09-28T21:36:26.051Z,98611.56
2022-09-28T21:38:55.228Z,98615.88
2022-09-28T21:41:22.605Z,98612.63
2022-09-28T21:43:49.738Z,98614.53
2022-09-28T21:46:17.720Z,98616.72
2022-09-28T21:48:44.774Z,98618.63
2022-09-28T21:51:14.502Z,98617.28
2022-09-28T21:53:41.722Z,98616.47
2022-09-28T21:56:11.767Z,98612.16
2022-09-28T21:58:40.219Z,98624.31
2022-09-28T22:01:25.757Z,98629.28
2022-09-28T22:03:55.283Z,98634.13
2022-09-28T22:06:25.868Z,98640.91
2022-09-28T22:08:52.822Z,98650.94
2022-09-28T22:11:22.609Z,98659.03
2022-09-28T22:13:52.290Z,98654.72
2022-09-28T22:16:22.591Z,98649.03
2022-09-28T22:18:50.125Z,98642.00
2022-09-28T22:21:18.798Z,98624.69
2022-09-28T22:23:46.127Z,98626.56
2022-09-28T22:26:35.054Z,98618.72
2022-09-28T22:29:08.137Z,98621.44
2022-09-28T22:31:40.342Z,98632.53
2022-09-28T22:34:08.083Z,98636.31
2022-09-28T22:36:35.325Z,98628.22
2022-09-28T22:39:02.619Z,98621.16
2022-09-28T22:41:30.089Z,98617.91
2022-09-28T22:43:57.613Z,98619.28
2022-09-28T22:46:29.469Z,98608.47
2022-09-28T22:48:58.968Z,98616.00
2022-09-28T22:51:28.574Z,98608.94
2022-09-28T22:53:56.800Z,98623.31
2022-09-28T22:56:24.010Z,98614.09
2022-09-28T22:58:52.069Z,98620.59
2022-09-28T23:01:24.513Z,98618.69
2022-09-28T23:03:53.315Z,98623.00
2022-09-28T23:06:22.235Z,98607.63
2022-09-28T23:08:50.483Z,98616.81
2022-09-28T23:11:17.713Z,98618.19
2022-09-28T23:13:57.016Z,98611.69
2022-09-28T23:16:25.819Z,98603.03
2022-09-28T23:18:54.577Z,98596.50
2022-09-28T23:21:24.167Z,98609.47
2022-09-28T23:23:54.214Z,98633.06
2022-09-28T23:26:26.737Z,98630.63
2022-09-28T23:28:54.480Z,98646.31
2022-09-28T23:31:29.735Z,98669.28
2022-09-28T23:34:02.114Z,98666.06
2022-09-28T23:36:29.324Z,98684.19
2022-09-28T23:38:56.584Z,98691.22
2022-09-28T23:41:23.891Z,98699.91
2022-09-28T23:43:50.827Z,98708.81
2022-09-28T23:46:20.973Z,98713.41
2022-09-28T23:48:49.380Z,98699.06
2022-09-28T23:51:16.812Z,98690.69
2022-09-28T23:53:43.878Z,98693.97
2022-09-28T23:56:11.172Z,98692.03
2022-09-28T23:58:38.219Z,98686.94
